Time;durP1;ratioP1;P1;durP2;ratioP2;P2;SDS_P1;SDS_P2;PMS_P1;PMS_P2;Temp;Humidity;BMP_temperature;BMP_pressure;BME280_temperature;BME280_humidity;BME280_pressure;Samples;Min_cycle;Max_cycle;Signal;HPM_P1;HPM_P2
2022/09/27 00:02:02;;;;;;;3.20;1.00;;;;;;;9.96;98.45;99905.88;5048472;28;20040;-71
2022/09/27 00:04:28;;;;;;;6.87;0.80;;;;;;;10.00;96.86;99886.09;5046961;28;20488;-71
2022/09/27 00:06:53;;;;;;;5.45;1.35;;;;;;;9.96;95.85;99889.47;5046360;28;20033;-71
2022/09/27 00:09:19;;;;;;;15.20;1.63;;;;;;;9.95;95.77;99887.78;5045873;28;20033;-72
2022/09/27 00:11:46;;;;;;;2.60;0.90;;;;;;;9.94;96.59;99891.59;5048573;28;20055;-70
2022/09/27 00:14:14;;;;;;;3.63;1.10;;;;;;;10.00;96.18;99887.97;5042017;28;20036;-71
2022/09/27 00:16:41;;;;;;;2.28;0.80;;;;;;;9.96;96.47;99886.72;5048178;28;20025;-72
2022/09/27 00:19:10;;;;;;;12.32;1.27;;;;;;;9.91;96.94;99883.78;5046696;28;20032;-71
2022/09/27 00:21:36;;;;;;;8.63;0.80;;;;;;;9.97;96.37;99893.88;5048556;28;20502;-71
2022/09/27 00:24:02;;;;;;;4.10;1.10;;;;;;;9.94;97.24;99889.66;5048425;28;20112;-72
2022/09/27 00:26:28;;;;;;;18.45;3.08;;;;;;;9.95;98.58;99899.59;5048842;28;20108;-71
2022/09/27 00:28:53;;;;;;;7.57;1.50;;;;;;;9.92;97.95;99894.53;5048412;28;20021;-71
2022/09/27 00:31:30;;;;;;;13.15;1.50;;;;;;;9.90;97.80;99890.31;5048410;28;20037;-71
2022/09/27 00:33:57;;;;;;;8.90;1.30;;;;;;;9.90;97.55;99893.06;5046763;28;20100;-72
2022/09/27 00:36:24;;;;;;;9.25;1.55;;;;;;;9.88;98.70;99892.44;5045785;28;20045;-71
2022/09/27 00:38:50;;;;;;;;;;;;;;;9.76;98.81;99895.00;5042710;28;20037;-71
2022/09/27 00:41:19;;;;;;;9.88;1.20;;;;;;;9.72;98.83;99898.41;5042283;28;19917;-71
2022/09/27 00:43:54;;;;;;;7.72;1.10;;;;;;;9.65;99.44;99898.41;5049855;28;20484;-72
2022/09/27 00:46:26;;;;;;;6.22;1.00;;;;;;;9.59;100.00;99902.00;5047908;28;20053;-72
2022/09/27 00:49:02;;;;;;;5.20;1.58;;;;;;;9.49;100.00;99896.13;5050205;28;20104;-72
2022/09/27 00:51:28;;;;;;;6.00;1.40;;;;;;;9.41;100.00;99895.53;5049562;28;20194;-71
2022/09/27 00:53:56;;;;;;;11.23;1.30;;;;;;;9.36;100.00;99900.78;5029071;28;20111;-71
2022/09/27 00:56:28;;;;;;;6.20;0.93;;;;;;;9.28;100.00;99901.84;5049383;28;20273;-71
2022/09/27 00:59:19;;;;;;;6.75;1.42;;;;;;;9.25;100.00;99890.50;5046965;28;20037;-71
2022/09/27 01:01:45;;;;;;;6.10;1.40;;;;;;;9.30;100.00;99907.94;5047103;28;20079;-74
2022/09/27 01:04:21;;;;;;;6.13;1.73;;;;;;;9.45;100.00;99926.84;5046240;28;20024;-72
2022/09/27 01:06:47;;;;;;;8.15;1.63;;;;;;;9.63;100.00;99910.63;5042490;28;20134;-73
2022/09/27 01:09:12;;;;;;;9.73;1.50;;;;;;;9.67;100.00;99900.94;5045412;28;20453;-72
2022/09/27 01:11:48;;;;;;;8.10;1.50;;;;;;;9.72;99.05;99915.63;5044845;28;20033;-73
2022/09/27 01:14:40;;;;;;;9.32;3.20;;;;;;;9.63;99.25;99916.94;5046439;28;20388;-74
2022/09/27 01:17:43;;;;;;;10.95;1.35;;;;;;;9.71;99.08;99915.88;5046946;28;20108;-73
2022/09/27 01:20:18;;;;;;;9.05;1.63;;;;;;;9.63;99.58;99916.06;5048651;28;20551;-74
2022/09/27 01:23:07;;;;;;;13.13;1.60;;;;;;;9.57;100.00;99912.31;5051680;28;20032;-73
2022/09/27 01:26:03;;;;;;;12.27;2.10;;;;;;;9.57;100.00;99922.41;5050402;28;20025;-74
2022/09/27 01:28:51;;;;;;;5.45;1.50;;;;;;;9.50;100.00;99927.88;5051672;28;20072;-74
2022/09/27 01:31:31;;;;;;;7.00;1.20;;;;;;;9.60;100.00;99939.22;5046420;28;20072;-73
2022/09/27 01:34:15;;;;;;;11.77;1.48;;;;;;;9.66;100.00;99932.06;5048583;28;20033;-73
2022/09/27 01:36:53;;;;;;;12.27;2.63;;;;;;;9.90;97.21;99950.50;5046716;28;20037;-74
2022/09/27 01:39:44;;;;;;;12.70;2.30;;;;;;;9.86;97.38;99932.84;5047861;28;20443;-74
2022/09/27 01:42:20;;;;;;;9.65;1.60;;;;;;;9.85;97.13;99936.63;5051531;28;20029;-74
2022/09/27 01:44:53;;;;;;;14.13;1.95;;;;;;;9.90;96.01;99934.09;5050020;28;20029;-73
2022/09/27 01:47:27;;;;;;;9.18;2.38;;;;;;;9.89;96.12;99932.41;5050870;28;20477;-74
2022/09/27 01:50:00;;;;;;;9.48;1.65;;;;;;;9.83;96.73;99931.38;5048806;28;20124;-73
2022/09/27 01:52:36;;;;;;;12.00;1.60;;;;;;;9.84;96.03;99930.34;5050736;28;20025;-74
2022/09/27 01:55:05;;;;;;;14.60;2.20;;;;;;;9.83;95.89;99922.34;5047578;28;20029;-75
2022/09/27 01:57:36;;;;;;;12.45;1.90;;;;;;;9.75;95.23;99917.09;5049055;28;20091;-74
2022/09/27 02:00:08;;;;;;;14.02;2.40;;;;;;;9.79;95.20;99926.56;5050701;28;20052;-74
2022/09/27 02:02:41;;;;;;;13.07;2.10;;;;;;;9.75;95.03;99930.75;5050529;28;20500;-74
2022/09/27 02:05:09;;;;;;;10.52;1.30;;;;;;;9.77;95.95;99928.69;5044969;28;20021;-74
2022/09/27 02:07:42;;;;;;;11.68;2.45;;;;;;;9.70;96.05;99928.69;5029284;28;20029;-74
2022/09/27 02:10:18;;;;;;;15.02;1.67;;;;;;;9.76;94.44;99918.81;5044809;28;20208;-74
2022/09/27 02:12:56;;;;;;;13.85;1.90;;;;;;;9.80;95.76;99914.56;5034578;28;20037;-74
2022/09/27 02:15:22;;;;;;;10.23;1.75;;;;;;;9.79;95.47;99904.69;5048245;28;20036;-74
2022/09/27 02:17:57;;;;;;;7.85;1.67;;;;;;;9.70;96.22;99908.69;5050024;28;20040;-74
2022/09/27 02:20:39;;;;;;;9.73;2.08;;;;;;;9.65;96.62;99905.75;5049218;28;20064;-73
2022/09/27 02:23:28;;;;;;;12.30;1.50;;;;;;;9.62;96.91;99903.47;5048952;28;20059;-74
2022/09/27 02:26:00;;;;;;;10.70;2.10;;;;;;;9.55;98.27;99899.91;5047158;28;20110;-74
2022/09/27 02:28:29;;;;;;;3.88;1.13;;;;;;;9.51;98.39;99891.28;5031820;28;20425;-73
2022/09/27 02:30:55;;;;;;;9.13;1.52;;;;;;;9.43;98.75;99904.34;5048254;28;20052;-74
2022/09/27 02:33:27;;;;;;;14.40;1.25;;;;;;;9.44;97.75;99897.84;5051453;28;20037;-74
2022/09/27 02:35:52;;;;;;;9.20;1.33;;;;;;;9.46;97.74;99904.75;5044785;28;20029;-74
2022/09/27 02:38:18;;;;;;;10.37;1.53;;;;;;;9.49;95.31;99909.81;5050202;28;20029;-74
2022/09/27 02:40:45;;;;;;;11.40;1.30;;;;;;;9.61;94.27;99910.81;5050863;28;20037;-74
2022/09/27 02:43:13;;;;;;;8.07;0.98;;;;;;;9.64;94.89;99910.41;5050574;28;20037;-73
2022/09/27 02:46:03;;;;;;;4.32;0.82;;;;;;;9.69;94.21;99918.81;5047470;28;20029;-74
2022/09/27 02:48:59;;;;;;;6.20;1.40;;;;;;;9.68;94.50;99910.81;5045281;28;20036;-73
2022/09/27 02:51:40;;;;;;;9.63;1.63;;;;;;;9.64;95.01;99917.75;5046417;28;20024;-74
2022/09/27 02:54:27;;;;;;;17.92;1.30;;;;;;;9.64;95.29;99925.97;5032426;28;20028;-73
2022/09/27 02:57:20;;;;;;;15.33;3.13;;;;;;;9.49;97.05;99972.66;5048959;28;20025;-75
2022/09/27 03:00:07;;;;;;;7.13;2.17;;;;;;;9.18;99.89;99958.81;5028978;28;20394;-74
2022/09/27 03:02:52;;;;;;;8.60;1.63;;;;;;;9.28;98.70;99955.66;5049997;28;20043;-73
2022/09/27 03:05:25;;;;;;;7.55;1.20;;;;;;;9.22;99.40;99961.94;5047146;28;20028;-72
2022/09/27 03:07:50;;;;;;;10.48;1.50;;;;;;;9.29;99.22;99954.63;5033160;28;20033;-73
2022/09/27 03:10:18;;;;;;;10.55;1.65;;;;;;;9.21;99.22;99950.19;5026920;28;20021;-73
2022/09/27 03:12:44;;;;;;;11.60;1.50;;;;;;;9.30;99.06;99948.91;5048170;28;20029;-72
2022/09/27 03:15:10;;;;;;;8.57;1.40;;;;;;;9.30;100.00;99953.56;5049523;28;20035;-73
2022/09/27 03:17:35;;;;;;;9.20;1.27;;;;;;;9.31;99.76;99949.78;5032094;28;20039;-74
2022/09/27 03:20:01;;;;;;;6.72;1.13;;;;;;;9.29;98.98;99946.41;5048091;28;20029;-74
2022/09/27 03:22:26;;;;;;;12.95;1.27;;;;;;;9.29;99.04;99940.94;5049756;28;20036;-73
2022/09/27 03:24:51;;;;;;;6.35;1.27;;;;;;;9.32;99.30;99935.03;5047918;28;20021;-74
2022/09/27 03:27:17;;;;;;;10.07;1.33;;;;;;;9.34;98.64;99932.97;5051427;28;20484;-74
2022/09/27 03:29:42;;;;;;;3.53;1.30;;;;;;;9.31;98.22;99923.28;5045938;28;20021;-74
2022/09/27 03:32:07;;;;;;;6.00;1.57;;;;;;;9.29;98.61;99919.09;5050662;28;20029;-74
2022/09/27 03:34:33;;;;;;;6.47;1.27;;;;;;;9.27;99.16;99921.19;5028095;28;20033;-72
2022/09/27 03:36:58;;;;;;;8.20;1.65;;;;;;;9.25;98.99;99926.88;5030818;28;20033;-73
2022/09/27 03:39:23;;;;;;;9.07;1.25;;;;;;;9.22;99.72;99920.97;5049074;28;20136;-73
2022/09/27 03:41:49;;;;;;;6.95;1.17;;;;;;;9.17;99.83;99918.03;5050505;28;20127;-73
2022/09/27 03:44:14;;;;;;;9.77;1.48;;;;;;;9.17;99.68;99920.75;5040265;28;20029;-74
2022/09/27 03:46:39;;;;;;;2.23;0.83;;;;;;;9.13;99.98;99916.78;5044295;28;20082;-74
2022/09/27 03:49:04;;;;;;;5.28;1.23;;;;;;;9.13;99.17;99922.25;5045435;28;20033;-74
2022/09/27 03:51:30;;;;;;;3.95;1.20;;;;;;;9.05;99.60;99933.38;5047426;28;20112;-73
2022/09/27 03:53:55;;;;;;;5.53;1.02;;;;;;;9.08;99.52;99925.59;5049820;28;20041;-73
2022/09/27 03:56:21;;;;;;;3.05;0.90;;;;;;;9.11;99.39;99929.81;5049082;28;20036;-74
2022/09/27 03:58:47;;;;;;;8.40;1.13;;;;;;;9.10;99.36;99939.06;5048405;28;20357;-73
2022/09/27 04:01:13;;;;;;;7.38;1.00;;;;;;;9.13;99.32;99950.41;5044785;28;20053;-73
2022/09/27 04:03:38;;;;;;;6.40;1.20;;;;;;;9.10;99.53;99941.78;5045552;28;20033;-75
2022/09/27 04:06:04;;;;;;;3.57;1.93;;;;;;;9.14;99.38;99937.59;5034293;28;20048;-74
2022/09/27 04:08:29;;;;;;;3.77;0.83;;;;;;;9.12;99.17;99951.44;5023547;28;20052;-74
2022/09/27 04:10:55;;;;;;;3.53;1.00;;;;;;;9.09;99.05;99942.84;5048893;28;20087;-73
2022/09/27 04:13:21;;;;;;;4.95;0.90;;;;;;;9.11;99.49;99946.19;5049088;28;20495;-72
2022/09/27 04:15:47;;;;;;;8.05;1.17;;;;;;;9.11;99.80;99949.78;5039870;28;20120;-73
2022/09/27 04:18:12;;;;;;;1.35;0.77;;;;;;;9.11;99.18;99947.03;5047458;28;20491;-74
2022/09/27 04:20:38;;;;;;;2.15;0.73;;;;;;;9.15;99.33;99934.66;5047127;28;20075;-74
2022/09/27 04:23:03;;;;;;;4.43;1.15;;;;;;;9.24;99.23;99938.84;5045683;28;20055;-73
2022/09/27 04:25:29;;;;;;;3.70;0.70;;;;;;;9.27;99.16;99940.31;5042266;28;20033;-74
2022/09/27 04:27:54;;;;;;;3.35;0.70;;;;;;;9.24;99.72;99943.47;5029805;28;20472;-72
2022/09/27 04:30:21;;;;;;;5.35;0.93;;;;;;;9.26;99.67;99958.63;5023928;28;20041;-73
2022/09/27 04:32:47;;;;;;;9.43;1.20;;;;;;;9.30;99.95;99950.81;5020596;28;20504;-73
2022/09/27 04:37:58;;;;;;;2.15;0.98;;;;;;;9.27;99.18;99916.56;5030868;28;20097;-74
2022/09/27 04:40:24;;;;;;;6.10;1.30;;;;;;;9.26;100.00;99930.44;5022779;28;20466;-74
2022/09/27 04:42:50;;;;;;;5.90;0.97;;;;;;;9.20;99.98;99943.06;5029939;28;20062;-74
2022/09/27 04:45:16;;;;;;;2.97;1.58;;;;;;;9.22;99.49;99945.56;5028563;28;20086;-74
2022/09/27 04:47:46;;;;;;;4.20;0.73;;;;;;;9.20;100.00;99950.41;5046899;28;20065;-74
2022/09/27 04:50:12;;;;;;;7.15;1.10;;;;;;;9.15;100.00;99944.72;5047628;28;20033;-73
2022/09/27 04:52:39;;;;;;;5.13;1.20;;;;;;;9.30;100.00;99953.56;5049522;28;20025;-74
2022/09/27 04:55:05;;;;;;;5.57;1.05;;;;;;;9.24;100.00;99949.75;5050451;28;20033;-73
2022/09/27 04:57:31;;;;;;;6.00;1.65;;;;;;;9.27;100.00;99956.69;5052963;28;20039;-73
2022/09/27 04:59:59;;;;;;;3.20;1.10;;;;;;;9.32;100.00;99959.66;5050596;28;20032;-73
2022/09/27 05:02:25;;;;;;;2.70;1.35;;;;;;;9.35;99.64;99948.31;5050638;28;20029;-74
2022/09/27 05:04:51;;;;;;;9.60;1.45;;;;;;;9.27;100.00;99951.22;5045788;28;20033;-73
2022/09/27 05:07:16;;;;;;;3.95;1.05;;;;;;;9.33;100.00;99928.53;5040860;28;20461;-74
2022/09/27 05:09:41;;;;;;;5.03;1.17;;;;;;;9.30;100.00;99937.16;5033287;28;20025;-74
2022/09/27 05:12:07;;;;;;;4.90;1.10;;;;;;;9.30;99.98;99961.75;5052771;28;20381;-74
2022/09/27 05:14:33;;;;;;;8.20;3.40;;;;;;;9.15;100.00;99981.09;5052008;28;20029;-74
2022/09/27 05:16:58;;;;;;;6.82;3.83;;;;;;;9.11;100.00;99981.69;5042434;28;20396;-73
2022/09/27 05:19:24;;;;;;;10.53;2.53;;;;;;;9.17;100.00;99981.72;5046523;28;20029;-75
2022/09/27 05:21:49;;;;;;;18.10;1.73;;;;;;;9.16;100.00;99968.25;5049700;28;20377;-74
2022/09/27 05:24:15;;;;;;;13.77;1.30;;;;;;;9.11;100.00;99970.78;5049955;28;20069;-75
2022/09/27 05:26:40;;;;;;;11.13;1.73;;;;;;;9.17;100.00;99959.88;5052332;28;20059;-75
2022/09/27 05:29:06;;;;;;;15.50;2.85;;;;;;;9.18;99.95;99960.72;5049538;28;20037;-75
2022/09/27 05:31:31;;;;;;;20.77;1.63;;;;;;;9.17;100.00;99948.06;5049925;28;20044;-73
2022/09/27 05:33:57;;;;;;;10.63;1.33;;;;;;;9.16;100.00;99940.94;5040211;28;20036;-74
2022/09/27 05:36:22;;;;;;;4.47;1.07;;;;;;;9.13;100.00;99941.38;5049947;28;20024;-74
2022/09/27 05:38:48;;;;;;;10.37;1.30;;;;;;;9.09;99.93;99940.97;5051214;28;20036;-74
2022/09/27 05:41:13;;;;;;;8.20;1.90;;;;;;;9.17;99.67;99943.47;5050988;28;20435;-74
2022/09/27 05:43:39;;;;;;;7.45;1.35;;;;;;;9.11;100.00;99935.25;5047775;28;20068;-74
2022/09/27 05:46:04;;;;;;;8.13;1.70;;;;;;;9.14;100.00;99929.41;5050799;28;20040;-74
2022/09/27 05:48:30;;;;;;;5.80;1.48;;;;;;;9.22;100.00;99915.50;5033174;28;20032;-74
2022/09/27 05:50:56;;;;;;;8.38;1.35;;;;;;;9.24;100.00;99916.16;5051539;28;20029;-74
2022/09/27 05:53:22;;;;;;;3.28;1.17;;;;;;;9.16;100.00;99916.34;5020706;28;20029;-74
2022/09/27 05:55:48;;;;;;;6.07;1.27;;;;;;;9.24;100.00;99918.88;5047180;28;20032;-74
2022/09/27 05:58:15;;;;;;;6.28;1.10;;;;;;;9.21;100.00;99917.41;5049573;28;20037;-74
2022/09/27 06:00:42;;;;;;;7.80;1.00;;;;;;;9.21;100.00;99930.22;5028286;28;20032;-74
2022/09/27 06:03:07;;;;;;;;;;;;;;;9.17;100.00;99940.72;5032889;28;20021;-74
2022/09/27 06:05:37;;;;;;;5.60;1.52;;;;;;;9.23;99.97;99942.63;5043787;28;20001;-74
2022/09/27 06:08:06;;;;;;;7.60;1.70;;;;;;;9.18;100.00;99944.31;5048509;28;20029;-74
2022/09/27 06:10:32;;;;;;;4.93;1.83;;;;;;;9.33;100.00;99945.78;5016364;28;20392;-73
2022/09/27 06:13:03;;;;;;;9.82;1.65;;;;;;;9.32;99.83;99949.56;5035618;28;20029;-73
2022/09/27 06:15:31;;;;;;;8.20;1.63;;;;;;;9.28;99.53;99955.66;5047928;28;20100;-73
2022/09/27 06:17:57;;;;;;;4.75;1.27;;;;;;;9.21;99.64;99957.53;5047117;28;20059;-74
2022/09/27 06:20:22;;;;;;;6.20;1.80;;;;;;;9.26;99.30;99944.94;5044420;28;20037;-74
2022/09/27 06:22:47;;;;;;;4.60;1.10;;;;;;;9.27;99.80;99951.22;5046306;28;20496;-73
2022/09/27 06:25:13;;;;;;;8.57;1.25;;;;;;;9.19;99.37;99951.47;5045035;28;20471;-73
2022/09/27 06:27:38;;;;;;;5.28;1.38;;;;;;;9.21;100.00;99955.66;5043988;28;20036;-75
2022/09/27 06:30:04;;;;;;;3.83;1.27;;;;;;;9.26;99.76;99955.03;5039822;28;20100;-73
2022/09/27 06:32:30;;;;;;;4.82;1.00;;;;;;;9.26;100.00;99957.75;5044596;28;20020;-74
2022/09/27 06:34:55;;;;;;;10.70;1.33;;;;;;;9.31;99.61;99958.81;5023337;28;20044;-74
2022/09/27 06:37:25;;;;;;;5.53;1.03;;;;;;;9.34;100.00;99960.28;5043056;28;20032;-73
2022/09/27 06:39:51;;;;;;;7.72;1.00;;;;;;;9.37;99.68;99966.16;5038655;28;20025;-73
2022/09/27 06:42:17;;;;;;;5.57;1.30;;;;;;;9.38;100.00;99956.06;5052204;28;20094;-74
2022/09/27 06:44:42;;;;;;;7.78;1.30;;;;;;;9.40;99.75;99963.00;5050391;28;20512;-73
2022/09/27 06:47:08;;;;;;;10.85;1.08;;;;;;;9.44;99.68;99949.78;5049041;28;20032;-74
2022/09/27 06:49:33;;;;;;;5.45;1.42;;;;;;;9.46;100.00;99944.94;5032262;28;20115;-74
2022/09/27 06:51:59;;;;;;;6.47;1.10;;;;;;;9.50;99.93;99954.38;5046141;28;20198;-73
2022/09/27 06:54:24;;;;;;;5.87;1.13;;;;;;;9.56;100.00;99959.81;5022960;28;20040;-72
2022/09/27 06:56:50;;;;;;;8.53;2.50;;;;;;;9.56;99.63;99957.09;5025415;28;20042;-73
2022/09/27 07:01:59;;;;;;;5.45;1.08;;;;;;;9.62;98.86;99964.44;5050155;28;20459;-73
2022/09/27 07:04:24;;;;;;;7.73;1.30;;;;;;;9.63;99.45;99948.88;5050832;28;20028;-72
2022/09/27 07:06:50;;;;;;;6.82;1.88;;;;;;;9.70;99.56;99963.38;5048002;28;20097;-73
2022/09/27 07:09:15;;;;;;;5.43;1.40;;;;;;;9.68;99.53;99969.09;5048255;28;20040;-72
2022/09/27 07:11:42;;;;;;;10.23;1.37;;;;;;;9.65;99.91;99965.91;5042489;28;20396;-72
2022/09/27 07:14:09;;;;;;;;;;;;;;;9.68;100.00;99970.97;5045410;28;20056;-72
2022/09/27 07:16:34;;;;;;;4.20;1.33;;;;;;;9.77;99.44;99972.44;5047408;28;19928;-73
2022/09/27 07:18:59;;;;;;;6.35;1.38;;;;;;;9.73;99.62;99968.44;5049444;28;20452;-73
2022/09/27 07:21:25;;;;;;;8.90;1.20;;;;;;;9.77;99.34;99966.97;5032389;28;20028;-73
2022/09/27 07:23:51;;;;;;;4.93;1.33;;;;;;;9.79;99.94;99967.56;5047864;28;20498;-72
2022/09/27 07:26:16;;;;;;;6.95;1.52;;;;;;;9.82;99.69;99958.97;5046156;28;20021;-73
2022/09/27 07:28:42;;;;;;;8.93;1.40;;;;;;;9.88;99.27;99960.84;5049755;28;20384;-72
2022/09/27 07:31:08;;;;;;;5.83;1.87;;;;;;;9.93;99.61;99959.13;5049052;28;20033;-72
2022/09/27 07:33:34;;;;;;;8.30;1.20;;;;;;;10.07;100.00;99965.41;5048255;28;20033;-73
2022/09/27 07:35:59;;;;;;;9.90;1.20;;;;;;;10.08;100.00;99964.41;5044709;28;20028;-74
2022/09/27 07:38:25;;;;;;;8.20;1.40;;;;;;;10.04;100.00;99957.66;5048396;28;20025;-72
2022/09/27 07:40:50;;;;;;;3.72;1.23;;;;;;;10.18;99.96;99964.75;5044624;28;20203;-72
2022/09/27 07:43:16;;;;;;;7.47;2.20;;;;;;;10.15;99.74;99962.47;5046525;28;20154;-72
2022/09/27 07:45:41;;;;;;;6.18;1.45;;;;;;;10.14;98.77;99964.34;5047222;28;20021;-73
2022/09/27 07:48:09;;;;;;;7.03;1.10;;;;;;;10.15;99.26;99966.03;5048606;28;20025;-72
2022/09/27 07:50:35;;;;;;;12.23;1.50;;;;;;;10.27;98.56;99966.19;5048324;28;20029;-72
2022/09/27 07:53:00;;;;;;;8.43;1.50;;;;;;;10.26;98.80;99975.47;5041872;28;20033;-72
2022/09/27 07:55:25;;;;;;;5.82;1.58;;;;;;;10.23;99.28;99984.94;5044854;28;20072;-72
2022/09/27 07:57:51;;;;;;;4.97;2.15;;;;;;;10.25;99.24;99982.00;5049582;28;20036;-72
2022/09/27 08:00:18;;;;;;;7.07;1.50;;;;;;;10.20;99.78;99984.56;5048890;28;20029;-73
2022/09/27 08:02:44;;;;;;;9.88;2.20;;;;;;;10.19;100.00;100005.59;5048630;28;20104;-73
2022/09/27 08:05:12;;;;;;;11.43;2.80;;;;;;;10.26;99.45;100005.56;5049801;28;20037;-73
2022/09/27 08:07:38;;;;;;;8.55;1.70;;;;;;;10.22;98.76;100005.16;5044675;28;20289;-73
2022/09/27 08:10:05;;;;;;;11.98;1.80;;;;;;;10.25;98.41;100010.19;5044885;28;20040;-72
2022/09/27 08:12:30;;;;;;;6.80;1.38;;;;;;;10.13;98.98;100011.06;5047989;28;20029;-73
2022/09/27 08:15:00;;;;;;;5.33;1.07;;;;;;;10.18;99.62;100014.00;5045967;28;20067;-73
2022/09/27 08:17:25;;;;;;;10.10;1.80;;;;;;;10.23;99.92;100009.59;5031216;28;20102;-73
2022/09/27 08:19:50;;;;;;;16.47;2.80;;;;;;;10.30;99.34;100021.34;5049443;28;20076;-73
2022/09/27 08:22:16;;;;;;;11.47;1.97;;;;;;;10.25;98.92;100031.28;5049851;28;20040;-73
2022/09/27 08:24:41;;;;;;;5.90;1.25;;;;;;;10.19;99.26;100038.44;5042915;28;20032;-73
2022/09/27 08:27:07;;;;;;;4.25;1.10;;;;;;;10.07;99.46;100044.78;5027696;28;20040;-73
2022/09/27 08:29:34;;;;;;;11.37;1.60;;;;;;;10.12;100.00;100042.22;5040433;28;20364;-73
2022/09/27 08:31:59;;;;;;;11.10;1.83;;;;;;;10.06;100.00;100035.75;5021638;28;20356;-73
2022/09/27 08:34:24;;;;;;;3.53;1.25;;;;;;;9.97;100.00;100030.66;5023181;28;20037;-73
2022/09/27 08:36:50;;;;;;;6.25;1.92;;;;;;;10.01;99.96;100031.91;5038469;28;20033;-74
2022/09/27 08:39:15;;;;;;;3.43;1.70;;;;;;;9.94;100.00;100025.63;5041229;28;20033;-73
2022/09/27 08:41:52;;;;;;;9.82;2.10;;;;;;;9.97;100.00;100023.28;5042208;28;20539;-72
2022/09/27 08:44:55;;;;;;;7.05;1.35;;;;;;;10.02;100.00;100036.31;5039094;28;20025;-73
2022/09/27 08:47:28;;;;;;;15.73;2.47;;;;;;;9.96;100.00;100032.56;5042408;28;20033;-72
2022/09/27 08:50:27;;;;;;;8.95;1.85;;;;;;;9.94;99.97;100031.09;5041134;28;20029;-73
2022/09/27 08:53:17;;;;;;;10.77;1.80;;;;;;;9.85;100.00;100041.41;5041618;28;20709;-73
2022/09/27 08:55:47;;;;;;;11.52;1.50;;;;;;;9.85;100.00;100033.22;5044159;28;20025;-73
2022/09/27 08:58:15;;;;;;;7.43;1.90;;;;;;;9.84;100.00;100042.47;5037108;28;20029;-73
2022/09/27 09:00:41;;;;;;;9.05;2.53;;;;;;;9.93;100.00;100046.66;5045477;28;20044;-73
2022/09/27 09:03:18;;;;;;;6.73;1.70;;;;;;;9.84;100.00;100056.16;5025715;28;20497;-72
2022/09/27 09:06:09;;;;;;;8.77;2.42;;;;;;;9.84;100.00;100041.63;5026901;28;20289;-73
2022/09/27 09:08:46;;;;;;;9.88;1.48;;;;;;;9.85;100.00;100051.50;4998546;28;20079;-72
2022/09/27 09:14:42;;;;;;;9.40;2.35;;;;;;;9.79;97.81;100063.31;5037914;28;20363;-72
2022/09/27 09:17:27;;;;;;;3.63;1.10;;;;;;;9.71;98.33;100066.25;5000528;28;20468;-72
2022/09/27 09:20:11;;;;;;;3.60;1.10;;;;;;;9.55;99.03;100058.47;5039504;28;20021;-72
2022/09/27 09:23:09;;;;;;;7.07;1.15;;;;;;;9.52;99.71;100050.69;5044390;28;20112;-72
2022/09/27 09:25:56;;;;;;;5.47;1.05;;;;;;;9.51;99.43;100060.75;5038339;28;20098;-72
2022/09/27 09:28:32;;;;;;;3.38;0.90;;;;;;;9.58;99.48;100056.16;5042709;28;20032;-72
2022/09/27 09:31:42;;;;;;;3.85;0.90;;;;;;;9.62;99.08;100054.66;5040330;28;20037;-73
2022/09/27 09:34:20;;;;;;;4.07;0.98;;;;;;;9.83;99.06;100056.34;4959658;28;20126;-73
2022/09/27 09:36:48;;;;;;;7.10;1.20;;;;;;;9.89;98.88;100058.25;4963751;28;20458;-73
2022/09/27 09:39:21;;;;;;;1.75;0.93;;;;;;;10.01;99.08;100051.91;5006673;28;20475;-73
2022/09/27 09:42:14;;;;;;;10.02;1.58;;;;;;;10.00;98.36;100055.72;5045594;28;20472;-73
2022/09/27 09:44:57;;;;;;;7.25;1.30;;;;;;;10.01;98.67;100051.06;5045504;28;20032;-72
2022/09/27 09:47:35;;;;;;;2.63;0.80;;;;;;;10.00;98.23;100054.84;5035542;28;20021;-73
2022/09/27 09:50:13;;;;;;;5.68;1.35;;;;;;;10.01;97.96;100057.38;5046814;28;20033;-73
2022/09/27 09:52:42;;;;;;;3.40;1.58;;;;;;;9.90;97.46;100059.91;5046437;28;20028;-73
2022/09/27 09:55:17;;;;;;;1.92;0.90;;;;;;;9.79;97.98;100066.88;5045500;28;20801;-73
2022/09/27 09:57:53;;;;;;;3.47;0.93;;;;;;;9.75;97.24;100083.91;5022074;28;20040;-73
2022/09/27 10:00:19;;;;;;;2.13;1.02;;;;;;;9.65;98.11;100078.00;5040143;28;20061;-74
2022/09/27 10:02:46;;;;;;;8.52;1.60;;;;;;;9.46;98.39;100079.69;5046321;28;20087;-74
2022/09/27 10:05:19;;;;;;;1.27;0.80;;;;;;;9.46;97.36;100084.34;5047791;28;20041;-73
2022/09/27 10:07:44;;;;;;;1.33;0.82;;;;;;;9.43;98.34;100077.38;5031253;28;20028;-73
2022/09/27 10:10:15;;;;;;;2.95;0.80;;;;;;;9.42;98.64;100072.13;5042372;28;20045;-74
2022/09/27 10:12:41;;;;;;;8.20;1.40;;;;;;;9.40;98.87;100080.53;5050728;28;20036;-74
2022/09/27 10:15:17;;;;;;;2.60;0.80;;;;;;;9.43;97.96;100076.53;5046855;28;20213;-73
2022/09/27 10:17:49;;;;;;;3.10;1.38;;;;;;;9.38;99.06;100070.84;5048585;28;20138;-74
2022/09/27 10:20:25;;;;;;;2.22;0.90;;;;;;;9.38;98.18;100076.31;5029073;28;20040;-73
2022/09/27 10:22:57;;;;;;;6.18;1.02;;;;;;;9.44;98.88;100079.06;5049568;28;20118;-73
2022/09/27 10:25:22;;;;;;;1.02;0.95;;;;;;;9.40;99.06;100080.53;5051404;28;20044;-73
2022/09/27 10:27:53;;;;;;;5.13;0.95;;;;;;;9.37;99.89;100077.38;5048873;28;20028;-73
2022/09/27 10:30:32;;;;;;;1.25;0.88;;;;;;;9.45;98.99;100071.72;5049143;28;20032;-73
2022/09/27 10:33:03;;;;;;;5.50;1.42;;;;;;;9.43;99.75;100071.06;5051545;28;20060;-73
2022/09/27 10:35:28;;;;;;;3.42;0.90;;;;;;;9.42;99.51;100059.31;5041773;28;20037;-73
2022/09/27 10:38:10;;;;;;;3.25;1.40;;;;;;;9.45;98.74;100053.41;5030346;28;20021;-73
2022/09/27 10:40:36;;;;;;;1.98;1.20;;;;;;;9.44;98.70;100053.66;5049350;28;20029;-73
2022/09/27 10:43:01;;;;;;;4.18;1.02;;;;;;;9.47;99.33;100045.84;5051337;28;20078;-72
2022/09/27 10:45:32;;;;;;;2.25;1.20;;;;;;;9.42;98.46;100047.53;5032115;28;20025;-72
2022/09/27 10:47:59;;;;;;;3.60;1.10;;;;;;;9.41;99.72;100048.56;5048388;28;20043;-73
2022/09/27 10:50:26;;;;;;;;;;;;;;;9.39;99.35;100045.22;5030139;28;20068;-72
2022/09/27 10:53:10;;;;;;;2.60;1.00;;;;;;;9.30;99.46;100030.91;5049701;28;20087;-73
2022/09/27 10:55:36;;;;;;;2.90;1.00;;;;;;;9.39;99.84;100054.25;5046025;28;20056;-73
2022/09/27 10:58:02;;;;;;;3.80;1.20;;;;;;;9.38;99.43;100059.91;5049860;28;20068;-72
2022/09/27 11:00:36;;;;;;;3.30;1.35;;;;;;;9.44;100.00;100059.94;5040284;28;20029;-72
2022/09/27 11:03:05;;;;;;;4.43;1.23;;;;;;;9.41;98.31;100051.31;5048851;28;20147;-72
2022/09/27 11:05:37;;;;;;;3.10;1.10;;;;;;;9.45;99.32;100058.06;5049167;28;20043;-72
2022/09/27 11:08:27;;;;;;;8.45;1.60;;;;;;;9.49;99.73;100068.34;5048924;28;20033;-72
2022/09/27 11:11:15;;;;;;;3.03;1.30;;;;;;;9.56;98.27;100060.16;5045412;28;20064;-72
2022/09/27 11:13:56;;;;;;;2.28;1.00;;;;;;;9.47;97.88;100056.78;5038576;28;20033;-73
2022/09/27 11:16:39;;;;;;;6.68;1.00;;;;;;;9.54;98.51;100054.03;5050963;28;20104;-73
2022/09/27 11:19:59;;;;;;;9.10;2.08;;;;;;;9.56;99.64;100046.50;5046292;28;20040;-73
2022/09/27 11:22:30;;;;;;;3.05;1.27;;;;;;;9.64;99.68;100051.72;4969933;28;20118;-73
2022/09/27 11:25:14;;;;;;;3.50;1.60;;;;;;;9.59;99.46;100046.03;4970113;28;20560;-74
2022/09/27 11:27:49;;;;;;;3.65;1.65;;;;;;;9.77;99.25;100055.28;5011733;28;20041;-73
2022/09/27 11:30:19;;;;;;;4.07;1.40;;;;;;;9.88;98.67;100042.88;5045973;28;20116;-73
2022/09/27 11:33:09;;;;;;;9.43;4.30;;;;;;;10.27;96.50;100034.63;5051634;28;20025;-72
2022/09/27 11:35:43;;;;;;;14.95;5.05;;;;;;;10.48;96.53;100031.59;5050309;28;20028;-73
2022/09/27 11:38:35;;;;;;;9.05;3.08;;;;;;;10.77;97.19;100023.66;5047177;28;20025;-73
2022/09/27 11:41:29;;;;;;;7.63;1.85;;;;;;;11.10;98.97;100027.06;5029970;28;20123;-73
2022/09/27 11:44:18;;;;;;;4.28;1.60;;;;;;;11.21;97.54;100012.63;5046125;28;20021;-73
2022/09/27 11:46:54;;;;;;;3.45;1.02;;;;;;;11.19;95.92;100025.75;5049912;28;20025;-73
2022/09/27 11:49:31;;;;;;;7.57;1.35;;;;;;;11.33;91.50;100027.34;5047333;28;20059;-73
2022/09/27 11:53:01;;;;;;;5.72;2.97;;;;;;;11.30;91.36;100018.69;5045661;28;20491;-73
2022/09/27 11:56:02;;;;;;;4.07;1.40;;;;;;;11.36;92.58;100013.16;4974775;28;20045;-72
2022/09/27 11:59:01;;;;;;;3.30;0.90;;;;;;;11.41;92.68;100015.22;5049500;28;20041;-74
2022/09/27 12:01:53;;;;;;;0.88;0.85;;;;;;;11.28;93.76;100016.19;5030114;28;20037;-74
2022/09/27 12:04:38;;;;;;;2.03;1.10;;;;;;;11.26;94.56;100017.47;5047515;28;20033;-75